Kakushu Maru — JG5688 — position and weather

sailwx.info

Track history (hours):
 
Tides and Currents Weather Stations Pressure Air Temp Water Temp Dewpoint Dewpoint Depression Visibility Wind Speed Wind Dir Waves Ship Positions

Kakushu Maru

Last reported at 2017-Apr-01 16:15 UTC. Time now 2017-Apr-23 17:54 UTC.
Position N 33°44' E 132°18'.
Warning: this ship's position is 22 days out of date.

Length 105 m; draft 6.4 m.

Type: Tanker. MMSI: 431101016.

Date/timePositionNaut miles runAvg speedWind from/ knotsBaromVisibWave heightAir tempDewpointWater temp
2017-Apr-01 16:15N 33°44' E 132°18'413.1
2017-Apr-01 15:58N 33°46' E 132°22'613.1
2017-Apr-01 15:30N 33°48' E 132°28'612.8
2017-Apr-01 15:00N 33°52' E 132°34'611.8
2017-Apr-01 14:27N 33°56' E 132°40'115 6.8
2017-Mar-31 21:31N 34°35' E 134°51'014.4
2017-Mar-31 21:30N 34°35' E 134°51'613.0
2017-Mar-31 21:00N 34°37' E 134°58'510.4
2017-Mar-31 20:30N 34°35' E 135°04'611.7
2017-Mar-31 20:00N 34°30' E 135°04'713.4
2017-Mar-31 19:30N 34°23' E 135°01'712.1
2017-Mar-31 18:55N 34°16' E 134°59'512.8
2017-Mar-31 18:30N 34°11' E 134°59'813.4
2017-Mar-31 17:56N 34°03' E 134°60'2 0.0
2017-Mar-29 18:33N 34°05' E 134°59'1514.8
2017-Mar-29 17:33N 34°20' E 134°59'1414.4
2017-Mar-29 16:33N 34°34' E 135°04'12 0.4
2017-Mar-28 09:08N 34°34' E 134°49'814.5
2017-Mar-28 08:33N 34°37' E 134°58'1313.1
2017-Mar-28 07:33N 34°34' E 135°14'7 0.8
2017-Mar-27 22:32N 34°33' E 135°22'3 2.9
2017-Mar-27 21:30N 34°32' E 135°19'0 0.0
2017-Mar-27 20:18N 34°32' E 135°19'0 0.0
2017-Mar-27 19:24N 34°32' E 135°19'0 0.1
2017-Mar-27 18:18N 34°32' E 135°19'5 7.2
2017-Mar-27 17:33N 34°34' E 135°13'1515.3
2017-Mar-27 16:33N 34°35' E 134°54'122 5.3
2017-Mar-26 17:28N 34°02' E 132°32'12514.0
2017-Mar-26 08:33N 34°37' E 134°57'1313.4
2017-Mar-26 07:33N 34°34' E 135°13'8 0.9
2017-Mar-25 22:32N 34°33' E 135°23'3 2.6
2017-Mar-25 21:33N 34°32' E 135°20'0 0.0
2017-Mar-25 20:33N 34°32' E 135°20'0 0.0
2017-Mar-25 19:32N 34°32' E 135°20'0 0.0
2017-Mar-25 18:33N 34°32' E 135°20'7 7.1
2017-Mar-25 17:33N 34°34' E 135°12'1514.5
2017-Mar-25 16:33N 34°35' E 134°54'129 6.0
2017-Mar-24 19:12N 34°08' E 132°22'1112.9
2017-Mar-24 18:22N 34°02' E 132°33'12013.6
2017-Mar-24 09:32N 34°35' E 134°52'1414.0
2017-Mar-24 08:33N 34°35' E 135°09'1313.3
2017-Mar-24 07:33N 34°32' E 135°24'2 0.3
2017-Mar-23 22:32N 34°33' E 135°22'2 2.3
2017-Mar-23 21:29N 34°32' E 135°19'0 0.0
2017-Mar-23 20:29N 34°32' E 135°19'0 0.0
2017-Mar-23 19:29N 34°32' E 135°19'0 0.1
2017-Mar-23 18:29N 34°32' E 135°19'8 8.1
2017-Mar-23 17:33N 34°34' E 135°11'1413.5
2017-Mar-23 16:33N 34°35' E 134°54'11513.6
2017-Mar-23 08:04N 34°05' E 132°39'  
Track history (hours):
 
Tides and Currents Weather Stations Pressure Air Temp Water Temp Dewpoint Dewpoint Depression Visibility Wind Speed Wind Dir Waves Ship Positions

Kakushu Maru

Last reported at 2017-Apr-01 16:15 UTC. Time now 2017-Apr-23 17:54 UTC.
Position N 33°44' E 132°18'.
Warning: this ship's position is 22 days out of date.

Length 105 m; draft 6.4 m.

Type: Tanker. MMSI: 431101016.

Date/timePositionNaut miles runAvg speedWind from/ knotsBaromVisibWave heightAir tempDewpointWater temp
2017-Apr-01 16:15N 33°44' E 132°18'413.1
2017-Apr-01 15:58N 33°46' E 132°22'613.1
2017-Apr-01 15:30N 33°48' E 132°28'612.8
2017-Apr-01 15:00N 33°52' E 132°34'611.8
2017-Apr-01 14:27N 33°56' E 132°40'115 6.8
2017-Mar-31 21:31N 34°35' E 134°51'014.4
2017-Mar-31 21:30N 34°35' E 134°51'613.0
2017-Mar-31 21:00N 34°37' E 134°58'510.4
2017-Mar-31 20:30N 34°35' E 135°04'611.7
2017-Mar-31 20:00N 34°30' E 135°04'713.4
2017-Mar-31 19:30N 34°23' E 135°01'712.1
2017-Mar-31 18:55N 34°16' E 134°59'512.8
2017-Mar-31 18:30N 34°11' E 134°59'813.4
2017-Mar-31 17:56N 34°03' E 134°60'2 0.0
2017-Mar-29 18:33N 34°05' E 134°59'1514.8
2017-Mar-29 17:33N 34°20' E 134°59'1414.4
2017-Mar-29 16:33N 34°34' E 135°04'12 0.4
2017-Mar-28 09:08N 34°34' E 134°49'814.5
2017-Mar-28 08:33N 34°37' E 134°58'1313.1
2017-Mar-28 07:33N 34°34' E 135°14'7 0.8
2017-Mar-27 22:32N 34°33' E 135°22'3 2.9
2017-Mar-27 21:30N 34°32' E 135°19'0 0.0
2017-Mar-27 20:18N 34°32' E 135°19'0 0.0
2017-Mar-27 19:24N 34°32' E 135°19'0 0.1
2017-Mar-27 18:18N 34°32' E 135°19'5 7.2
2017-Mar-27 17:33N 34°34' E 135°13'1515.3
2017-Mar-27 16:33N 34°35' E 134°54'122 5.3
2017-Mar-26 17:28N 34°02' E 132°32'12514.0
2017-Mar-26 08:33N 34°37' E 134°57'1313.4
2017-Mar-26 07:33N 34°34' E 135°13'8 0.9
2017-Mar-25 22:32N 34°33' E 135°23'3 2.6
2017-Mar-25 21:33N 34°32' E 135°20'0 0.0
2017-Mar-25 20:33N 34°32' E 135°20'0 0.0
2017-Mar-25 19:32N 34°32' E 135°20'0 0.0
2017-Mar-25 18:33N 34°32' E 135°20'7 7.1
2017-Mar-25 17:33N 34°34' E 135°12'1514.5
2017-Mar-25 16:33N 34°35' E 134°54'129 6.0
2017-Mar-24 19:12N 34°08' E 132°22'1112.9
2017-Mar-24 18:22N 34°02' E 132°33'12013.6
2017-Mar-24 09:32N 34°35' E 134°52'1414.0
2017-Mar-24 08:33N 34°35' E 135°09'1313.3
2017-Mar-24 07:33N 34°32' E 135°24'2 0.3
2017-Mar-23 22:32N 34°33' E 135°22'2 2.3
2017-Mar-23 21:29N 34°32' E 135°19'0 0.0
2017-Mar-23 20:29N 34°32' E 135°19'0 0.0
2017-Mar-23 19:29N 34°32' E 135°19'0 0.1
2017-Mar-23 18:29N 34°32' E 135°19'8 8.1
2017-Mar-23 17:33N 34°34' E 135°11'1413.5
2017-Mar-23 16:33N 34°35' E 134°54'11513.6
2017-Mar-23 08:04N 34°05' E 132°39'  

Dump ship's entire track history